• pl
  • eng

Awiacja
WIADOMOŚCI
ostatnia aktualizacja: 13.09.2018 10:07
Szanowni Państwo,

w dniach 22-27 października br. IMGW-PIB we współpracy z Aeroklubem „Żar” organizuje XVII edycję Szkoły Meteorologii Lotniczej. Tematem tegorocznej edycji Szkoły są możliwości i ograniczenia w prognozowaniu pogody. Dobór zagadnień oraz obecność wysoko wykwalifikowanych wykładowców gwarantuje, że czas poświęcony na uczestnictwo w Szkole będzie dobrze wykorzystany, a zdobyta fachowa wiedza zaprocentuje w przyszłości i przyczyni się do zwiększenia poziomu bezpieczeństwa w lotnictwie.

Szczegółowe informacje znajdują się w poniższym linku.

Już teraz serdecznie zapraszamy do udziału w Szkole Meteorologii Lotniczej

Komunikaty METAR z lotnisk wojskowych. 18:01 21.09.2018

METAR EPCE 211600Z 18012G25KT 130V210 9999 SCT249 26/12
Q1002 RMK 262 041 4/4 =

METAR EPDA 211600Z 19014KT 140V210 9999 FEW086 BKN150 27/11
Q0999 RMK 272 036 6/2 LTG DSNT N =

METAR EPDE 211600Z 15006KT CAVOK 24/11 Q1012 RMK 244 043 0/0=

METAR EPIR 211560Z 16014KT CAVOK 27/10 Q1005 RMK 271 034 5/5=

METAR EPKS 211600Z 18011KT CAVOK 27/12 Q1005 RMK 272 038 5/5=

METAR EPLK 211600Z 18006KT 150V210 CAVOK 24/11 Q1009 RMK 238 044
6/6=

METAR EPLY 211600Z 18010KT CAVOK 26/09 Q1008 RMK 257 035 6/6=

METAR EPMB 211600Z 19012KT CAVOK 26/09 Q1004 RMK 264 033 4/1=

METAR EPMI 211600Z 16010KT 9999 SCT090 BKN200 28/08 Q1002 RMK 276
029 6/3=
244
SAPL97 SOPR 211600 RRC

METAR COR EPMM 211600Z 16004KT CAVOK 23/12 Q1011 RMK 232 048 1/1=

METAR EPNA 211600Z NIL=

METAR EPOK 211600Z 17018KT 9999 BKN253 27/11
Q1001 RMK 269 038 6/6 =

METAR EPPR 211600Z 16010KT CAVOK 27/09 Q1002 RMK 272 032 3/3=

METAR EPPW 211600Z 17012KT CAVOK 27/10 Q1005 RMK 266 035 6/2=

METAR EPRA 211600Z NIL=

METAR EPSN 211600Z 25018G30KT 8000 -TSRA BKN033CB BKN100 24/12 Q1001
RMK 242 045 7/5=

METAR EPTM 211600Z AUTO 17006KT 25/09 Q1010 RMK 245 038 ///=
 METAR EPPW
Lokalizacja:EPPW Powidz
Czas:16:00 UTC
Średni kierunek wiatru:170 °
Średnia prędkość wiatru:12 węzłów
CAVOK:Widzialność 10 km i więcej, zjawisko: NIL, zachmurzenie: NSC
Temperatura powietrza:27 °C
Temperatura punktu rosy:10 °C
Ciśnienie QNH:1005 hPa
Dokładna temperatura powietrza:26,6 °C
Dokładna wilgotność względna:35 %
Zachmurzenie przez wszystkie piętra chmur:6/8
Zachmurzenie przez chmury niskie:2/8
Awiacja.imgw.pl jest pogodowym serwisem informacyjnym
Instytutu Meteorologii i Gospodarki Wodnej Państwowego Instytutu Badawczego.
Copyright IMGW PIB 2009-2011© Wszelkie prawa zastrzeżone.